Daily Summary

Last 30 Days

Daily Data | America/Los_Angeles
as of 12/8/22 12:26 AM PST
Date Daily Max Temp (°F) Daily Min Temp (°F) Daily Rain (In) Season Precip (In) Daily Solar Rad (Cal/cm2) Daily ETo (in) Wind Spd (mph) Daily Max Wind (mph) Max Wind Dir (°) Dew Pt (°F) Max RH (%) Min RH (%) Daily Leaf Wet Hrs (hrs) Soil Temp (°F) Soil Moist (%) Fuel Moisture (%) Max Fuel Moisture (%) Min Fuel Moisture (%) MinBV Day (V)
12/7/22 55.1 38.1 0.04 12.91 215 0.042 1.1 6.6 WNW | 286 40.2 97 58 17.5 54.2 32.8 41 52 24 12.3
12/6/22 50.7 38.9 0.09 12.87 139 0.027 0.9 7.4 NNE | 18 41.9 97 73 20.0 54.2 34.2 46 50 33 12.2
12/5/22 53.5 42.7 0.19 12.78 133 0.027 1.0 11.5 NW | 309 45.4 98 74 21.6 54.2 34.0 46 51 36 12.2
12/4/22 51.3 44.1 0.40 12.59 98 0.021 0.8 8.3 SSE | 149 45.8 97 91 24.0 54.4 34.5 48 50 46 12.3
12/3/22 52.2 45.1 2.94 12.19 39 0.010 0.8 9.8 SW | 232 47.7 97 81 22.7 55.1 34.5 42 47 27 12.3
12/2/22 52.4 32.7 0.01 9.25 242 0.048 1.3 8.9 SE | 144 34.3 97 29 9.4 55.6 32.0 34 51 22 12.2
12/1/22 48.2 35.3 2.35 9.24 21 0.006 1.6 14.2 NE | 41 40.2 97 75 24.0 56.0 30.8 39 50 14 12.2
11/30/22 56.1 38.3 0.00 6.89 248 0.053 1.3 10.1 SSW | 213 33.4 86 27 16.2 56.2 24.7 13 16 5 12.3
11/29/22 57.9 36.9 0.00 6.89 255 0.055 1.3 6.8 SSW | 211 35.1 83 44 16.9 56.4 24.8 12 16 4 12.4
11/28/22 58.4 40.3 0.00 6.89 237 0.057 1.9 13.5 NNE | 31 35.3 78 39 2.4 56.5 25.1 8 12 3 12.4
11/27/22 67.3 47.2 0.00 6.89 242 0.059 1.3 5.9 WNW | 283 30.8 58 26 0.0 56.6 25.2 6 9 0 12.4
11/26/22 68.1 48.6 0.00 6.89 263 0.064 1.3 6.7 SE | 129 25.7 53 19 0.0 56.7 25.3 5 8 0 12.4
11/25/22 71.9 49.8 0.00 6.89 271 0.074 1.6 8.1 SSW | 201 22.0 41 10 0.0 56.8 25.5 5 8 0 12.4
11/24/22 71.3 48.8 0.00 6.89 271 0.071 1.4 8.3 SW | 233 29.2 49 19 0.0 57.0 25.6 6 9 0 12.4
11/23/22 66.9 48.9 0.00 6.89 266 0.068 1.5 9.8 NNE | 27 33.3 65 19 0.0 57.3 25.9 6 10 0 12.4
11/22/22 70.1 46.9 0.00 6.89 251 0.065 1.3 10.0 N | 354 26.8 57 12 0.0 57.5 26.0 6 9 0 12.4
11/21/22 67.9 47.7 0.00 6.89 252 0.065 1.5 7.4 ENE | 65 26.4 60 18 0.0 57.8 26.3 6 9 0 12.4
11/20/22 70.2 47.8 0.00 6.89 272 0.067 1.3 4.7 WSW | 249 27.3 53 14 0.0 58.0 26.5 6 9 0 12.4
11/19/22 67.6 45.2 0.00 6.89 282 0.074 1.7 9.8 NNE | 30 26.5 55 16 0.0 58.3 26.8 6 10 0 12.4
11/18/22 64.6 46.0 0.00 6.89 283 0.075 1.7 13.6 NE | 42 26.7 58 20 0.0 58.6 27.1 6 10 0 12.4
11/17/22 70.1 46.2 0.00 6.89 284 0.074 1.4 7.0 SW | 216 26.8 54 15 0.0 58.9 27.5 7 11 0 12.4
11/16/22 68.6 47.6 0.00 6.89 290 0.078 1.6 10.7 E | 90 24.6 55 15 0.0 59.3 27.8 7 11 0 12.4
11/15/22 65.5 41.7 0.00 6.89 290 0.076 2.0 11.7 NNE | 28 32.6 80 18 9.1 59.7 28.2 11 17 0 12.4
11/14/22 59.5 39.2 0.00 6.89 288 0.067 1.4 6.4 WSW | 257 35.7 82 39 17.6 60.1 28.6 13 19 3 12.3
11/13/22 59.7 40.8 0.00 6.89 299 0.069 1.3 9.9 WNW | 288 34.9 90 22 11.4 60.5 29.1 14 21 2 12.4
11/12/22 57.9 41.9 0.00 6.89 307 0.070 1.4 11.7 SSW | 203 37.2 88 36 5.1 60.9 29.7 16 24 5 12.4
11/11/22 59.6 38.3 0.00 6.89 242 0.056 1.3 5.5 SSE | 165 37.6 88 44 0.6 61.4 30.3 19 27 9 12.4
11/10/22 59.0 39.8 0.00 6.89 300 0.066 1.5 8.1 NNW | 337 38.0 96 38 10.0 61.9 31.3 27 40 10 12.4
11/9/22 55.6 38.2 0.07 6.89 226 0.048 1.1 7.5 SW | 221 41.3 97 64 18.2 62.5 33.0 38 49 23 12.2
11/8/22 48.2 40.7 3.20 6.82 116 0.023 1.7 12.4 W | 265 42.2 97 82 24.0 62.8 35.6 45 48 40 12.3
Max 71.9 49.8 3.20 12.91 307 0.078 2.0 14.2 - 47.7 98 91 24.0 62.8 35.6 48 52 46 12.4
Avg - - - - - - 1.4 - - 34.2 - - - 57.9 29.0 20 25 10 -
Min 48.2 32.7 0.00 6.82 21 0.006 0.8 4.7 - 22.0 41 10 0.0 54.2 24.7 5 8 0 12.2